Time;durP1;ratioP1;P1;durP2;ratioP2;P2;SDS_P1;SDS_P2;PMS_P1;PMS_P2;Temp;Humidity;BMP_temperature;BMP_pressure;BME280_temperature;BME280_humidity;BME280_pressure;Samples;Min_cycle;Max_cycle;Signal;HPM_P1;HPM_P2
2022/07/28 00:00:10;;;;;;;0.35;0.25;;;12.10;95.60;;;;;;5039409;28;20067;-73
2022/07/28 00:02:35;;;;;;;2.15;0.43;;;12.00;95.60;;;;;;5041271;28;20499;-74
2022/07/28 00:05:01;;;;;;;4.22;0.30;;;12.00;95.60;;;;;;5041856;28;20083;-74
2022/07/28 00:07:26;;;;;;;1.02;0.30;;;12.10;95.60;;;;;;5039419;28;20106;-74
2022/07/28 00:09:52;;;;;;;0.75;0.52;;;12.00;95.60;;;;;;5042227;28;20072;-74
2022/07/28 00:12:18;;;;;;;1.30;0.35;;;12.00;95.50;;;;;;5038673;28;20086;-74
2022/07/28 00:14:43;;;;;;;0.47;0.28;;;12.00;95.50;;;;;;5041311;28;20037;-73
2022/07/28 00:17:09;;;;;;;1.05;0.50;;;12.00;95.60;;;;;;5039559;28;20290;-74
2022/07/28 00:19:35;;;;;;;0.30;0.20;;;12.00;95.50;;;;;;5040658;28;20037;-74
2022/07/28 00:22:01;;;;;;;1.88;0.50;;;11.90;95.50;;;;;;5040157;28;20041;-74
2022/07/28 00:24:27;;;;;;;0.63;0.30;;;11.90;95.50;;;;;;5040592;28;20561;-73
2022/07/28 00:26:53;;;;;;;0.55;0.30;;;11.90;95.40;;;;;;5040474;28;20045;-74
2022/07/28 00:29:18;;;;;;;1.17;0.38;;;11.90;95.50;;;;;;5040902;28;20098;-73
2022/07/28 00:31:44;;;;;;;0.50;0.40;;;11.80;95.60;;;;;;5024648;28;20037;-73
2022/07/28 00:34:10;;;;;;;0.65;0.40;;;11.80;95.70;;;;;;5039919;28;20052;-74
2022/07/28 00:36:36;;;;;;;0.40;0.30;;;11.80;95.70;;;;;;5040639;28;20095;-74
2022/07/28 00:39:02;;;;;;;1.00;0.40;;;11.80;95.70;;;;;;5036748;28;20037;-73
2022/07/28 00:41:28;;;;;;;0.30;0.20;;;11.80;95.80;;;;;;5042638;28;20753;-73
2022/07/28 00:43:54;;;;;;;0.88;0.40;;;11.70;95.90;;;;;;5041582;28;20042;-73
2022/07/28 00:46:21;;;;;;;0.35;0.30;;;11.70;96.00;;;;;;5035982;28;20512;-74
2022/07/28 00:48:53;;;;;;;0.38;0.20;;;11.70;96.00;;;;;;5039702;28;20501;-74
2022/07/28 00:51:20;;;;;;;0.35;0.28;;;11.70;96.20;;;;;;5037984;28;20682;-73
2022/07/28 00:53:46;;;;;;;0.17;0.17;;;11.60;96.10;;;;;;5037889;28;20060;-74
2022/07/28 00:56:13;;;;;;;1.10;0.20;;;11.50;96.10;;;;;;5040071;28;20060;-73
2022/07/28 00:58:39;;;;;;;0.88;0.30;;;11.60;96.00;;;;;;5029950;28;20041;-73
2022/07/28 01:01:07;;;;;;;0.55;0.20;;;11.60;96.00;;;;;;5037353;28;20047;-74
2022/07/28 01:03:36;;;;;;;0.47;0.30;;;11.60;96.10;;;;;;5040991;28;20049;-74
2022/07/28 01:06:33;;;;;;;0.90;0.30;;;11.50;96.10;;;;;;5038336;28;20041;-73
2022/07/28 01:09:17;;;;;;;;;;;11.50;96.60;;;;;;5019333;28;20037;-74
2022/07/28 01:12:19;;;;;;;0.55;0.40;;;11.50;97.70;;;;;;5039489;28;19916;-73
2022/07/28 01:15:02;;;;;;;1.10;0.40;;;11.50;96.80;;;;;;5036707;28;20041;-74
2022/07/28 01:17:57;;;;;;;1.10;0.30;;;11.50;96.30;;;;;;5040948;28;20467;-73
2022/07/28 01:20:48;;;;;;;1.25;0.40;;;11.50;96.60;;;;;;5038767;28;20512;-74
2022/07/28 01:23:27;;;;;;;0.20;0.10;;;11.40;96.80;;;;;;5035297;28;20119;-74
2022/07/28 01:26:05;;;;;;;0.20;0.13;;;11.40;96.40;;;;;;5042063;28;20617;-73
2022/07/28 01:28:58;;;;;;;0.80;0.40;;;11.40;96.40;;;;;;5038331;28;20801;-73
2022/07/28 01:31:26;;;;;;;0.98;0.43;;;11.40;96.80;;;;;;5038345;28;20532;-73
2022/07/28 01:33:57;;;;;;;0.65;0.40;;;11.40;96.50;;;;;;5038835;28;20040;-74
2022/07/28 01:36:30;;;;;;;0.30;0.30;;;11.40;96.50;;;;;;5039014;28;20043;-73
2022/07/28 01:38:57;;;;;;;0.13;0.13;;;11.40;96.60;;;;;;5020287;28;20086;-73
2022/07/28 01:41:26;;;;;;;0.52;0.38;;;11.30;96.50;;;;;;5037777;28;21226;-73
2022/07/28 01:44:01;;;;;;;0.73;0.45;;;11.30;96.60;;;;;;5037587;28;20045;-74
2022/07/28 01:46:28;;;;;;;0.95;0.40;;;11.30;96.80;;;;;;5037646;28;20709;-73
2022/07/28 01:48:56;;;;;;;0.63;0.30;;;11.30;96.60;;;;;;5022725;28;20475;-73
2022/07/28 01:51:25;;;;;;;0.47;0.43;;;11.30;96.60;;;;;;5040910;28;20045;-73
2022/07/28 01:53:53;;;;;;;0.45;0.30;;;11.30;96.50;;;;;;5019144;28;20183;-73
2022/07/28 01:56:21;;;;;;;0.70;0.30;;;11.30;96.50;;;;;;5035877;28;20048;-74
2022/07/28 01:58:50;;;;;;;0.73;0.30;;;11.30;96.40;;;;;;5038148;28;20040;-74
2022/07/28 02:01:18;;;;;;;0.47;0.30;;;11.20;96.50;;;;;;5039145;28;20090;-74
2022/07/28 02:03:45;;;;;;;0.20;0.20;;;11.30;96.60;;;;;;5038318;28;20068;-74
2022/07/28 02:06:12;;;;;;;0.63;0.47;;;11.20;96.60;;;;;;5038550;28;20076;-73
2022/07/28 02:08:40;;;;;;;0.50;0.20;;;11.20;96.80;;;;;;5024079;28;20110;-73
2022/07/28 02:13:52;;;;;;;0.20;0.20;;;11.20;97.50;;;;;;5038582;28;20057;-74
2022/07/28 02:16:21;;;;;;;0.80;0.30;;;11.20;97.20;;;;;;5038142;28;20037;-73
2022/07/28 02:18:48;;;;;;;0.55;0.38;;;11.10;97.20;;;;;;5036130;28;20132;-73
2022/07/28 02:21:15;;;;;;;0.50;0.38;;;11.10;97.20;;;;;;5035383;28;20106;-74
2022/07/28 02:23:44;;;;;;;0.85;0.40;;;11.10;97.20;;;;;;5020974;28;20037;-74
2022/07/28 02:26:12;;;;;;;0.43;0.30;;;11.10;97.20;;;;;;5039339;28;20036;-74
2022/07/28 02:28:39;;;;;;;1.10;0.43;;;11.10;97.20;;;;;;5037537;28;20068;-74
2022/07/28 02:31:11;;;;;;;0.30;0.28;;;11.20;97.20;;;;;;5037534;28;20037;-73
2022/07/28 02:33:41;;;;;;;0.57;0.47;;;11.20;97.20;;;;;;5038321;28;20095;-73
2022/07/28 02:36:12;;;;;;;1.02;0.40;;;11.20;97.20;;;;;;5038717;28;20458;-74
2022/07/28 02:38:45;;;;;;;2.30;0.32;;;11.20;97.10;;;;;;5036734;28;20091;-74
2022/07/28 02:41:17;;;;;;;2.08;0.65;;;11.20;97.20;;;;;;5034502;28;20049;-74
2022/07/28 02:43:45;;;;;;;1.42;0.63;;;11.20;97.20;;;;;;5021106;28;20033;-74
2022/07/28 02:46:15;;;;;;;0.60;0.35;;;11.20;97.10;;;;;;5039530;28;20048;-73
2022/07/28 02:48:46;;;;;;;0.90;0.40;;;11.10;97.10;;;;;;5038384;28;20643;-74
2022/07/28 02:51:12;;;;;;;0.68;0.32;;;11.10;97.20;;;;;;5020222;28;20048;-73
2022/07/28 02:53:39;;;;;;;0.60;0.45;;;11.00;97.20;;;;;;5037307;28;20045;-73
2022/07/28 02:56:06;;;;;;;0.43;0.17;;;11.00;97.30;;;;;;5035711;28;20041;-74
2022/07/28 02:58:32;;;;;;;0.20;0.20;;;10.90;97.30;;;;;;5036997;28;20052;-74
2022/07/28 03:00:59;;;;;;;0.22;0.20;;;10.90;97.40;;;;;;5018128;28;20703;-73
2022/07/28 03:03:26;;;;;;;0.55;0.38;;;10.90;97.50;;;;;;5019490;28;20086;-74
2022/07/28 03:05:51;;;;;;;0.55;0.22;;;10.90;97.60;;;;;;5038426;28;20164;-74
2022/07/28 03:08:17;;;;;;;0.73;0.35;;;10.80;97.60;;;;;;5037709;28;20124;-74
2022/07/28 03:10:43;;;;;;;0.35;0.20;;;10.90;97.70;;;;;;5037283;28;20041;-74
2022/07/28 03:13:09;;;;;;;1.15;0.40;;;10.80;97.70;;;;;;5021965;28;20048;-73
2022/07/28 03:15:36;;;;;;;1.52;0.52;;;10.80;97.70;;;;;;5038239;28;20097;-73
2022/07/28 03:18:03;;;;;;;0.38;0.30;;;10.80;97.70;;;;;;5036141;28;20091;-73
2022/07/28 03:20:29;;;;;;;1.52;0.40;;;10.70;97.80;;;;;;5036238;28;20052;-73
2022/07/28 03:22:57;;;;;;;0.60;0.30;;;10.70;97.80;;;;;;5037704;28;20655;-74
2022/07/28 03:25:37;;;;;;;2.03;0.57;;;10.70;97.90;;;;;;5022858;28;20060;-74
2022/07/28 03:28:04;;;;;;;1.08;0.40;;;10.70;98.00;;;;;;5022530;28;20061;-74
2022/07/28 03:30:35;;;;;;;2.70;0.65;;;10.60;98.00;;;;;;5038086;28;20579;-74
2022/07/28 03:33:02;;;;;;;0.93;0.45;;;10.60;98.00;;;;;;5034979;28;20601;-74
2022/07/28 03:35:30;;;;;;;0.77;0.28;;;10.70;97.90;;;;;;5042297;28;20143;-74
2022/07/28 03:38:04;;;;;;;0.55;0.30;;;10.60;97.80;;;;;;5038344;28;20557;-74
2022/07/28 03:40:31;;;;;;;0.65;0.30;;;10.60;97.90;;;;;;5057812;28;20049;-74
2022/07/28 03:43:02;;;;;;;1.25;0.50;;;10.60;97.90;;;;;;5042014;28;20457;-74
2022/07/28 03:45:29;;;;;;;0.20;0.20;;;10.60;97.90;;;;;;5040979;28;20410;-74
2022/07/28 03:47:56;;;;;;;0.38;0.28;;;10.60;97.80;;;;;;5039995;28;20919;-74
2022/07/28 03:50:26;;;;;;;0.55;0.38;;;10.50;97.80;;;;;;5057918;28;20033;-74
2022/07/28 03:52:53;;;;;;;0.55;0.30;;;10.50;97.80;;;;;;5023283;28;20052;-74
2022/07/28 03:55:19;;;;;;;0.45;0.28;;;10.50;97.80;;;;;;5038825;28;20044;-74
2022/07/28 03:57:45;;;;;;;0.40;0.30;;;10.50;98.10;;;;;;5040569;28;20037;-74
2022/07/28 04:00:13;;;;;;;0.88;0.38;;;10.50;97.90;;;;;;5038479;28;20497;-73
2022/07/28 04:02:42;;;;;;;0.40;0.30;;;10.50;97.90;;;;;;5044783;28;20037;-73
2022/07/28 04:05:18;;;;;;;0.70;0.40;;;10.50;98.00;;;;;;5039794;28;20433;-74
2022/07/28 04:07:44;;;;;;;0.82;0.30;;;10.60;98.20;;;;;;5041311;28;20041;-74
2022/07/28 04:10:12;;;;;;;0.50;0.35;;;10.50;98.00;;;;;;5040584;28;20490;-73
2022/07/28 04:12:44;;;;;;;0.40;0.40;;;10.50;97.90;;;;;;5041145;28;20127;-73
2022/07/28 04:15:14;;;;;;;0.57;0.30;;;10.50;98.00;;;;;;5039125;28;20048;-73
2022/07/28 04:17:41;;;;;;;1.45;0.30;;;10.50;97.90;;;;;;5040984;28;20055;-74
2022/07/28 04:20:07;;;;;;;1.13;0.50;;;10.60;97.90;;;;;;5039661;28;20055;-73
2022/07/28 04:22:33;;;;;;;0.40;0.30;;;10.50;97.90;;;;;;5038714;28;20079;-73
2022/07/28 04:25:00;;;;;;;1.10;0.50;;;10.50;97.90;;;;;;5036198;28;20131;-73
2022/07/28 04:27:26;;;;;;;3.38;0.45;;;10.50;98.00;;;;;;5056972;28;20110;-73
2022/07/28 04:29:52;;;;;;;1.15;0.40;;;10.50;97.90;;;;;;5040090;28;20036;-74
2022/07/28 04:32:17;;;;;;;0.40;0.30;;;10.40;97.90;;;;;;5039228;28;20039;-74
2022/07/28 04:34:43;;;;;;;1.10;0.40;;;10.40;98.00;;;;;;5041699;28;20041;-74
2022/07/28 04:37:08;;;;;;;0.45;0.30;;;10.40;98.10;;;;;;5041413;28;20123;-74
2022/07/28 04:39:34;;;;;;;0.55;0.40;;;10.40;98.10;;;;;;5038265;28;20048;-74
2022/07/28 04:42:00;;;;;;;0.95;0.52;;;10.40;98.20;;;;;;5037759;28;20053;-74
2022/07/28 04:44:26;;;;;;;0.32;0.20;;;10.40;98.30;;;;;;5038075;28;20068;-74
2022/07/28 04:46:52;;;;;;;0.40;0.30;;;10.40;98.30;;;;;;5038078;28;20142;-73
2022/07/28 04:49:17;;;;;;;0.20;0.20;;;10.40;98.30;;;;;;5040133;28;20124;-74
2022/07/28 04:51:48;;;;;;;0.75;0.40;;;10.40;98.50;;;;;;5023474;28;20033;-73
2022/07/28 04:54:14;;;;;;;0.77;0.22;;;10.50;98.60;;;;;;5037869;28;20041;-73
2022/07/28 04:56:39;;;;;;;0.77;0.50;;;10.40;98.60;;;;;;5022946;28;20429;-73
2022/07/28 04:59:05;;;;;;;1.00;0.45;;;10.50;98.70;;;;;;5040010;28;20052;-73
2022/07/28 05:01:31;;;;;;;2.10;0.40;;;10.50;98.70;;;;;;5040244;28;20114;-73
2022/07/28 05:03:56;;;;;;;2.63;0.45;;;10.60;98.70;;;;;;5039631;28;20129;-73
2022/07/28 05:06:22;;;;;;;1.10;0.68;;;10.60;98.70;;;;;;5024992;28;20033;-73
2022/07/28 05:08:49;;;;;;;0.60;0.47;;;10.70;98.70;;;;;;5036215;28;20839;-73
2022/07/28 05:11:15;;;;;;;5.20;0.73;;;10.70;98.70;;;;;;5038443;28;20422;-74
2022/07/28 05:13:41;;;;;;;1.70;0.98;;;10.70;98.80;;;;;;5040254;28;20397;-73
2022/07/28 05:16:07;;;;;;;1.52;0.50;;;10.70;98.80;;;;;;5019669;28;20041;-73
2022/07/28 05:18:33;;;;;;;0.90;0.40;;;10.70;98.80;;;;;;5039845;28;20482;-73
2022/07/28 05:20:59;;;;;;;0.50;0.30;;;10.80;99.00;;;;;;5039183;28;20094;-73
2022/07/28 05:23:25;;;;;;;1.25;0.57;;;10.80;99.00;;;;;;5036051;28;20060;-73
2022/07/28 05:25:50;;;;;;;0.73;0.40;;;10.80;99.10;;;;;;5039708;28;20037;-73
2022/07/28 05:28:16;;;;;;;0.90;0.50;;;10.90;99.10;;;;;;5022191;28;20055;-73
2022/07/28 05:30:42;;;;;;;0.50;0.43;;;10.90;99.10;;;;;;5039027;28;20095;-73
2022/07/28 05:33:07;;;;;;;2.30;0.50;;;11.00;99.20;;;;;;5019249;28;20445;-74
2022/07/28 05:35:33;;;;;;;0.43;0.25;;;11.00;99.30;;;;;;5038727;28;20044;-73
2022/07/28 05:37:59;;;;;;;1.95;0.80;;;11.00;99.40;;;;;;5040486;28;20163;-73
2022/07/28 05:40:26;;;;;;;1.17;0.50;;;11.10;99.60;;;;;;5020208;28;20055;-73
2022/07/28 05:42:51;;;;;;;3.15;0.70;;;11.20;99.70;;;;;;5037878;28;20128;-73
2022/07/28 05:45:17;;;;;;;0.82;0.40;;;11.30;99.70;;;;;;5038951;28;20119;-73
2022/07/28 05:47:48;;;;;;;1.73;0.60;;;11.40;99.90;;;;;;5019619;28;20071;-73
2022/07/28 05:50:14;;;;;;;3.28;0.80;;;11.50;99.90;;;;;;5038021;28;20896;-74
2022/07/28 05:52:40;;;;;;;1.25;0.70;;;11.60;99.90;;;;;;5032504;28;20037;-74
2022/07/28 05:55:07;;;;;;;1.40;0.70;;;11.70;99.90;;;;;;5038526;28;20556;-74
2022/07/28 05:57:33;;;;;;;1.65;0.60;;;11.70;99.90;;;;;;5038076;28;20040;-74
2022/07/28 05:59:58;;;;;;;0.98;0.65;;;11.90;99.90;;;;;;5036554;28;20044;-74
2022/07/28 06:02:24;;;;;;;1.65;0.70;;;12.00;99.90;;;;;;5036225;28;20509;-74
2022/07/28 06:04:49;;;;;;;0.95;0.70;;;12.20;99.90;;;;;;5040026;28;20052;-74
2022/07/28 06:07:15;;;;;;;0.95;0.65;;;12.40;99.90;;;;;;5038597;28;20088;-74
2022/07/28 06:09:41;;;;;;;3.55;0.50;;;12.60;99.90;;;;;;5037230;28;20037;-74
2022/07/28 06:12:06;;;;;;;1.10;0.50;;;12.70;99.90;;;;;;5023006;28;20084;-74
2022/07/28 06:14:32;;;;;;;4.47;0.75;;;12.80;99.90;;;;;;5039006;28;20070;-74
2022/07/28 06:16:58;;;;;;;1.25;0.45;;;12.90;99.90;;;;;;5024445;28;20398;-74
2022/07/28 06:19:23;;;;;;;1.67;0.60;;;13.10;99.90;;;;;;5038938;28;20080;-74
2022/07/28 06:21:51;;;;;;;2.00;0.60;;;13.30;99.90;;;;;;5038483;28;20414;-76
2022/07/28 06:24:17;;;;;;;0.98;0.40;;;13.50;99.90;;;;;;5036441;28;20091;-74
2022/07/28 06:26:43;;;;;;;1.20;0.50;;;13.60;99.90;;;;;;5038081;28;20061;-74
2022/07/28 06:29:08;;;;;;;0.70;0.35;;;13.70;99.90;;;;;;5037370;28;20402;-74
2022/07/28 06:31:34;;;;;;;0.40;0.30;;;13.80;99.90;;;;;;5039014;28;20103;-74
2022/07/28 06:34:00;;;;;;;2.15;0.30;;;14.00;99.90;;;;;;5037205;28;20067;-74
2022/07/28 06:36:25;;;;;;;0.20;0.20;;;14.30;99.90;;;;;;5034711;28;20120;-73
2022/07/28 06:38:51;;;;;;;0.25;0.20;;;15.30;99.80;;;;;;5032359;28;20033;-74
2022/07/28 06:41:17;;;;;;;0.30;0.20;;;16.60;97.50;;;;;;5036386;28;20037;-73
2022/07/28 06:43:42;;;;;;;1.75;0.35;;;18.00;94.90;;;;;;5037971;28;20518;-75
2022/07/28 06:46:08;;;;;;;0.60;0.30;;;19.00;92.90;;;;;;5017816;28;20037;-74
2022/07/28 06:48:36;;;;;;;0.30;0.10;;;19.50;91.90;;;;;;5036728;28;20098;-75
2022/07/28 06:51:02;;;;;;;0.40;0.30;;;19.70;91.40;;;;;;5033271;28;20102;-74
2022/07/28 06:53:27;;;;;;;0.20;0.20;;;19.60;91.70;;;;;;5035715;28;20040;-74
2022/07/28 06:55:53;;;;;;;1.00;0.25;;;19.50;92.10;;;;;;5034714;28;20466;-75
2022/07/28 06:58:19;;;;;;;0.20;0.20;;;19.10;92.60;;;;;;5017921;28;20045;-74
2022/07/28 07:00:44;;;;;;;1.77;0.22;;;18.80;93.20;;;;;;5034164;28;20044;-74
2022/07/28 07:03:10;;;;;;;0.10;0.10;;;18.50;93.70;;;;;;5034525;28;20045;-74
2022/07/28 07:05:36;;;;;;;0.30;0.20;;;18.20;94.40;;;;;;5034906;28;20285;-74
2022/07/28 07:08:01;;;;;;;0.55;0.20;;;18.00;94.80;;;;;;5033219;28;20486;-74
2022/07/28 07:10:27;;;;;;;0.73;0.30;;;17.90;95.10;;;;;;5039280;28;20082;-74
2022/07/28 07:12:52;;;;;;;1.30;0.22;;;17.80;94.80;;;;;;5038367;28;20081;-74
2022/07/28 07:15:18;;;;;;;0.32;0.20;;;17.60;94.50;;;;;;5036294;28;20041;-73
2022/07/28 07:17:44;;;;;;;1.20;0.30;;;17.50;94.50;;;;;;5035918;28;20037;-74
2022/07/28 07:20:12;;;;;;;0.25;0.17;;;17.40;94.40;;;;;;5036198;28;20040;-73
2022/07/28 07:22:42;;;;;;;0.70;0.30;;;17.30;94.40;;;;;;5035775;28;20047;-71
2022/07/28 07:25:10;;;;;;;0.30;0.20;;;17.40;94.20;;;;;;5036897;28;20087;-73
2022/07/28 07:27:36;;;;;;;1.30;0.10;;;17.40;94.20;;;;;;5040160;28;20781;-73
2022/07/28 07:30:04;;;;;;;0.80;0.20;;;17.40;94.30;;;;;;5047162;28;20433;-74
2022/07/28 07:32:30;;;;;;;0.82;0.20;;;17.40;93.90;;;;;;5047543;28;20103;-73
2022/07/28 07:34:56;;;;;;;0.25;0.15;;;17.40;93.60;;;;;;5047635;28;20470;-73
2022/07/28 07:37:23;;;;;;;0.20;0.10;;;17.30;93.50;;;;;;5045520;28;20051;-73
2022/07/28 07:39:49;;;;;;;0.20;0.20;;;17.30;93.50;;;;;;5043823;28;20044;-73
2022/07/28 07:42:15;;;;;;;0.63;0.30;;;17.30;93.30;;;;;;5043854;28;20098;-74
2022/07/28 07:44:40;;;;;;;0.43;0.20;;;17.30;92.90;;;;;;5045888;28;20418;-73
2022/07/28 07:47:08;;;;;;;1.63;0.38;;;17.30;92.50;;;;;;5048650;28;20137;-73
2022/07/28 07:49:36;;;;;;;0.22;0.17;;;17.30;92.50;;;;;;5046818;28;20025;-73
2022/07/28 07:52:02;;;;;;;1.00;0.30;;;17.20;92.20;;;;;;5045015;28;20068;-74
2022/07/28 07:54:28;;;;;;;1.48;0.20;;;17.20;91.90;;;;;;5046860;28;20072;-74
2022/07/28 07:56:53;;;;;;;0.52;0.22;;;17.10;91.30;;;;;;5046734;28;20114;-73
2022/07/28 07:59:19;;;;;;;0.15;0.10;;;17.10;91.20;;;;;;5047478;28;20075;-73
2022/07/28 08:01:44;;;;;;;0.10;0.10;;;17.20;91.20;;;;;;5047476;28;20073;-74
2022/07/28 08:04:10;;;;;;;0.75;0.30;;;17.10;90.80;;;;;;5047602;28;20041;-73
2022/07/28 08:06:35;;;;;;;0.52;0.20;;;17.10;90.50;;;;;;5048588;28;20406;-74
2022/07/28 08:09:01;;;;;;;1.65;0.40;;;17.10;90.30;;;;;;5045095;28;20445;-73
2022/07/28 08:11:27;;;;;;;0.65;0.20;;;17.10;90.30;;;;;;5046302;28;20045;-73
2022/07/28 08:13:53;;;;;;;0.45;0.20;;;17.00;90.00;;;;;;5047831;28;20044;-73
2022/07/28 08:16:18;;;;;;;2.60;0.38;;;17.00;89.90;;;;;;5047176;28;20072;-73
2022/07/28 08:18:44;;;;;;;0.20;0.20;;;17.00;89.20;;;;;;5046372;28;20091;-73
2022/07/28 08:21:11;;;;;;;0.52;0.28;;;17.00;89.10;;;;;;5048451;28;20033;-73
2022/07/28 08:23:37;;;;;;;0.60;0.38;;;17.00;89.40;;;;;;5045415;28;20053;-73
2022/07/28 08:26:03;;;;;;;1.70;0.30;;;16.90;89.40;;;;;;5027789;28;20045;-74
2022/07/28 08:28:28;;;;;;;0.75;0.20;;;16.90;89.10;;;;;;5029675;28;20141;-73
2022/07/28 08:30:54;;;;;;;0.77;0.30;;;16.90;89.30;;;;;;5048945;28;20049;-74
2022/07/28 08:33:20;;;;;;;0.43;0.20;;;16.90;90.00;;;;;;5044044;28;20136;-73
2022/07/28 08:35:47;;;;;;;0.50;0.20;;;16.90;90.20;;;;;;5038345;28;20040;-73
2022/07/28 08:38:14;;;;;;;1.60;0.47;;;16.90;90.80;;;;;;5039301;28;20099;-79
2022/07/28 08:40:41;;;;;;;0.73;0.28;;;16.80;91.30;;;;;;5043828;28;20065;-73
2022/07/28 08:43:24;;;;;;;0.50;0.30;;;16.80;91.50;;;;;;5043284;28;20298;-73
2022/07/28 08:45:51;;;;;;;2.05;0.25;;;16.60;92.60;;;;;;5039886;28;20037;-74
2022/07/28 08:48:19;;;;;;;0.35;0.20;;;16.60;92.50;;;;;;5057300;28;20382;-73
2022/07/28 08:50:46;;;;;;;0.70;0.20;;;16.70;92.30;;;;;;5035487;28;20103;-74
2022/07/28 08:53:14;;;;;;;1.85;0.40;;;16.70;92.30;;;;;;5021828;28;20119;-74
2022/07/28 08:55:40;;;;;;;0.28;0.15;;;16.70;92.20;;;;;;5038785;28;20103;-73
2022/07/28 08:58:06;;;;;;;0.47;0.20;;;16.70;92.20;;;;;;5040480;28;20659;-73
2022/07/28 09:00:32;;;;;;;1.80;0.30;;;16.80;92.10;;;;;;5036366;28;20060;-73
2022/07/28 09:02:59;;;;;;;0.52;0.28;;;16.80;92.00;;;;;;5036051;28;20041;-73
2022/07/28 09:05:25;;;;;;;0.50;0.25;;;16.80;92.00;;;;;;5036270;28;20037;-73
2022/07/28 09:07:53;;;;;;;0.40;0.20;;;16.90;91.90;;;;;;5039993;28;20033;-74
2022/07/28 09:10:19;;;;;;;0.50;0.30;;;16.90;91.80;;;;;;5022039;28;20127;-74
2022/07/28 09:12:45;;;;;;;0.40;0.30;;;16.90;91.80;;;;;;5039294;28;20121;-73
2022/07/28 09:15:14;;;;;;;0.30;0.20;;;17.00;91.90;;;;;;5039048;28;20045;-74
2022/07/28 09:17:41;;;;;;;0.65;0.30;;;17.10;91.70;;;;;;5036261;28;20047;-73
2022/07/28 09:20:10;;;;;;;2.05;0.30;;;17.10;91.50;;;;;;5035289;28;20292;-73
2022/07/28 09:22:57;;;;;;;1.25;0.40;;;17.10;91.40;;;;;;5037566;28;20434;-74
2022/07/28 09:25:23;;;;;;;3.28;0.47;;;17.20;91.40;;;;;;5036219;28;20044;-73
2022/07/28 09:27:50;;;;;;;0.60;0.20;;;17.20;91.60;;;;;;5043301;28;20041;-72
2022/07/28 09:30:26;;;;;;;0.88;0.50;;;17.30;91.50;;;;;;5039073;28;20033;-73
2022/07/28 09:33:06;;;;;;;0.40;0.25;;;17.30;91.40;;;;;;5040158;28;20253;-73
2022/07/28 09:35:44;;;;;;;2.00;0.70;;;17.20;91.50;;;;;;5037480;28;20048;-73
2022/07/28 09:38:10;;;;;;;0.80;0.50;;;17.30;91.60;;;;;;5036526;28;20044;-73
2022/07/28 09:40:35;;;;;;;2.22;0.40;;;17.30;91.70;;;;;;5037680;28;20033;-73
2022/07/28 09:43:01;;;;;;;0.55;0.30;;;17.30;91.60;;;;;;5037297;28;20033;-73
2022/07/28 09:45:27;;;;;;;0.50;0.30;;;17.30;92.00;;;;;;5020152;28;20497;-73
2022/07/28 09:48:11;;;;;;;0.57;0.30;;;17.30;91.80;;;;;;5021173;28;20032;-73
2022/07/28 09:50:41;;;;;;;1.23;0.30;;;17.30;91.70;;;;;;5037504;28;20562;-73
2022/07/28 09:53:24;;;;;;;0.90;0.40;;;17.30;91.80;;;;;;5032267;28;20056;-73
2022/07/28 09:56:01;;;;;;;0.85;0.30;;;17.30;91.50;;;;;;5036599;28;20212;-72
2022/07/28 09:58:28;;;;;;;0.47;0.30;;;17.20;91.80;;;;;;5038971;28;20036;-73
2022/07/28 10:01:11;;;;;;;0.57;0.20;;;17.20;92.00;;;;;;5034202;28;20052;-73
2022/07/28 10:03:41;;;;;;;0.93;0.28;;;17.20;91.70;;;;;;5050253;28;20541;-72
2022/07/28 10:06:13;;;;;;;0.57;0.30;;;17.20;92.00;;;;;;5036059;28;20052;-73
2022/07/28 10:08:40;;;;;;;1.90;0.28;;;17.10;91.90;;;;;;5031288;28;20131;-72
2022/07/28 10:11:06;;;;;;;0.50;0.47;;;17.10;91.80;;;;;;5036873;28;20069;-73
2022/07/28 10:13:32;;;;;;;0.30;0.10;;;17.10;91.80;;;;;;5022707;28;20057;-73
2022/07/28 10:16:09;;;;;;;1.65;0.40;;;17.10;91.80;;;;;;5039572;28;20091;-73
2022/07/28 10:18:35;;;;;;;1.30;0.28;;;17.00;91.60;;;;;;5024874;28;20052;-73
2022/07/28 10:21:08;;;;;;;0.38;0.20;;;17.00;91.80;;;;;;5039702;28;20048;-73
2022/07/28 10:23:40;;;;;;;0.50;0.20;;;17.00;91.40;;;;;;5036504;28;20048;-73
2022/07/28 10:26:09;;;;;;;1.08;0.30;;;17.00;91.50;;;;;;5041824;28;20127;-73
2022/07/28 10:28:45;;;;;;;0.22;0.13;;;17.00;91.30;;;;;;5058120;28;20165;-73
2022/07/28 10:31:13;;;;;;;1.25;0.15;;;17.10;91.20;;;;;;5041445;28;20050;-73
2022/07/28 10:33:47;;;;;;;0.35;0.10;;;17.20;91.40;;;;;;5051702;28;20451;-73
2022/07/28 10:36:16;;;;;;;1.48;0.30;;;17.30;91.00;;;;;;5023986;28;20042;-73
2022/07/28 10:38:42;;;;;;;0.57;0.30;;;17.40;91.20;;;;;;5038429;28;20041;-72
2022/07/28 10:41:09;;;;;;;0.70;0.30;;;17.50;91.00;;;;;;5042826;28;20047;-72
2022/07/28 10:43:35;;;;;;;0.98;0.30;;;17.60;90.60;;;;;;5043894;28;20126;-73
2022/07/28 10:46:04;;;;;;;0.45;0.25;;;17.80;90.40;;;;;;5045699;28;20048;-72
2022/07/28 10:48:30;;;;;;;0.75;0.30;;;17.90;90.30;;;;;;5042503;28;20041;-73
2022/07/28 10:50:56;;;;;;;0.50;0.20;;;18.00;90.20;;;;;;5041667;28;20044;-72
2022/07/28 10:53:46;;;;;;;0.80;0.40;;;18.00;89.70;;;;;;5051323;28;20136;-73
2022/07/28 10:56:17;;;;;;;2.22;0.55;;;18.00;88.20;;;;;;5037742;28;20434;-73
2022/07/28 10:59:05;;;;;;;0.32;0.20;;;18.00;89.80;;;;;;5043466;28;20513;-73
2022/07/28 11:01:38;;;;;;;0.30;0.20;;;18.10;88.30;;;;;;5041714;28;20115;-73
2022/07/28 11:04:08;;;;;;;0.10;0.10;;;18.20;88.00;;;;;;5041522;28;20729;-73
2022/07/28 11:06:44;;;;;;;0.20;0.10;;;18.20;89.10;;;;;;5044984;28;20237;-73
2022/07/28 11:09:16;;;;;;;0.28;0.20;;;18.20;87.60;;;;;;5043158;28;20037;-73
2022/07/28 11:11:50;;;;;;;2.85;0.60;;;18.20;85.90;;;;;;5043842;28;20116;-73
2022/07/28 11:14:21;;;;;;;0.45;0.17;;;18.20;87.10;;;;;;5046904;28;20036;-73
2022/07/28 11:16:48;;;;;;;0.32;0.15;;;18.20;86.00;;;;;;5043678;28;20128;-73
2022/07/28 11:19:15;;;;;;;1.17;0.40;;;18.20;87.70;;;;;;5027097;28;20048;-73
2022/07/28 11:22:20;;;;;;;2.10;0.28;;;18.20;87.80;;;;;;5045004;28;20049;-73
2022/07/28 11:27:42;;;;;;;0.50;0.25;;;18.50;86.30;;;;;;5040476;28;20697;-73
2022/07/28 11:30:13;;;;;;;0.20;0.17;;;18.50;85.50;;;;;;5042102;28;20049;-73
2022/07/28 11:32:53;;;;;;;1.55;0.35;;;18.60;86.90;;;;;;5039970;28;20596;-73
2022/07/28 11:35:21;;;;;;;2.05;0.25;;;18.60;84.20;;;;;;5031708;28;20044;-73
2022/07/28 11:38:02;;;;;;;2.58;0.35;;;18.50;85.90;;;;;;5049466;28;20419;-73
2022/07/28 11:40:33;;;;;;;0.60;0.38;;;18.50;84.10;;;;;;5059763;28;20040;-73
2022/07/28 11:43:21;;;;;;;0.63;0.30;;;18.50;86.00;;;;;;5057537;28;20620;-73
2022/07/28 11:45:51;;;;;;;0.80;0.30;;;18.50;84.20;;;;;;5043314;28;20040;-73
2022/07/28 11:48:22;;;;;;;0.65;0.20;;;18.50;84.80;;;;;;5043811;28;20037;-73
2022/07/28 11:51:03;;;;;;;0.30;0.20;;;18.50;85.40;;;;;;5042032;28;20052;-73
2022/07/28 11:53:39;;;;;;;0.70;0.20;;;18.50;84.40;;;;;;5047963;28;20414;-73
2022/07/28 11:56:08;;;;;;;0.68;0.25;;;18.60;85.90;;;;;;5042706;28;20037;-73
2022/07/28 11:58:34;;;;;;;1.00;0.30;;;18.70;85.30;;;;;;5047373;28;20045;-73
2022/07/28 12:01:13;;;;;;;1.88;0.30;;;18.70;84.40;;;;;;5048036;28;20437;-73
2022/07/28 12:03:40;;;;;;;0.15;0.10;;;18.70;81.70;;;;;;5049184;28;20045;-73
2022/07/28 12:06:07;;;;;;;1.00;0.28;;;18.70;84.30;;;;;;5046808;28;20594;-72
2022/07/28 12:08:52;;;;;;;0.35;0.20;;;18.70;83.80;;;;;;5047656;28;20627;-72
2022/07/28 12:11:19;;;;;;;0.10;0.10;;;18.70;81.00;;;;;;5048022;28;20291;-72
2022/07/28 12:13:45;;;;;;;0.50;0.28;;;18.80;83.50;;;;;;5049939;28;20045;-72
2022/07/28 12:16:11;;;;;;;2.13;0.32;;;18.80;82.20;;;;;;5046978;28;20518;-72
2022/07/28 12:18:37;;;;;;;0.20;0.20;;;18.80;81.50;;;;;;5048213;28;20044;-71
2022/07/28 12:21:03;;;;;;;0.35;0.20;;;18.80;80.20;;;;;;5048068;28;20143;-72
2022/07/28 12:23:36;;;;;;;0.30;0.20;;;18.80;80.10;;;;;;5047784;28;20093;-72
2022/07/28 12:26:03;;;;;;;0.25;0.10;;;18.80;78.60;;;;;;5046629;28;20690;-73
2022/07/28 12:28:31;;;;;;;1.60;0.25;;;18.90;79.80;;;;;;5046426;28;20588;-72
2022/07/28 12:31:11;;;;;;;0.32;0.28;;;18.90;79.00;;;;;;5047443;28;20048;-73
2022/07/28 12:33:37;;;;;;;4.03;0.47;;;19.00;74.70;;;;;;5045108;28;20041;-73
2022/07/28 12:36:03;;;;;;;0.35;0.20;;;19.10;77.10;;;;;;5042237;28;20566;-73
2022/07/28 12:38:29;;;;;;;0.15;0.10;;;19.20;76.40;;;;;;5047115;28;20049;-73
2022/07/28 12:40:55;;;;;;;0.77;0.20;;;19.30;76.90;;;;;;5042208;28;20049;-74
2022/07/28 12:43:26;;;;;;;1.92;0.17;;;19.30;76.40;;;;;;5029872;28;20453;-73
2022/07/28 12:45:52;;;;;;;0.73;0.32;;;19.30;75.80;;;;;;5048179;28;20072;-74
2022/07/28 12:48:18;;;;;;;0.38;0.22;;;19.30;76.40;;;;;;5046479;28;20064;-73
2022/07/28 12:50:45;;;;;;;0.60;0.20;;;19.30;76.60;;;;;;5047011;28;20044;-73
2022/07/28 12:53:12;;;;;;;0.52;0.30;;;19.30;77.30;;;;;;5045517;28;20052;-73
2022/07/28 12:55:39;;;;;;;0.55;0.20;;;19.30;76.30;;;;;;5046265;28;20045;-73
2022/07/28 12:58:06;;;;;;;2.58;0.43;;;19.40;76.20;;;;;;5046462;28;20525;-74
2022/07/28 13:00:33;;;;;;;0.75;0.30;;;19.40;76.20;;;;;;5046628;28;20056;-74